Time,TemperatureF,DewpointF,PressureIn,WindDirection,WindDirectionDegrees,WindSpeedMPH,WindSpeedGustMPH,Humidity,HourlyPrecipIn,Conditions,Clouds,dailyrainin,SoftwareType,DateUTC
2013-03-07 00:04:00,5.2,2.7,30.43,West,275,0.0,0.0,89,0.00,,,0.08,Wunderground v.1.15,2013-03-07 06:04:00,
2013-03-07 00:09:00,5.0,2.5,30.43,West,275,0.0,0.0,89,0.00,,,0.08,Wunderground v.1.15,2013-03-07 06:09:00,
2013-03-07 00:15:00,4.9,2.6,30.43,West,275,0.0,0.0,90,0.00,,,0.08,Wunderground v.1.15,2013-03-07 06:15:00,
2013-03-07 00:21:00,4.8,2.3,30.43,West,275,0.0,0.0,89,0.00,,,0.08,Wunderground v.1.15,2013-03-07 06:21:00,
2013-03-07 00:26:00,4.7,2.4,30.43,West,275,0.0,0.0,90,0.00,,,0.08,Wunderground v.1.15,2013-03-07 06:26:00,
2013-03-07 00:32:00,4.6,2.3,30.43,West,275,0.0,0.0,90,0.00,,,0.08,Wunderground v.1.15,2013-03-07 06:32:00,
2013-03-07 00:38:00,4.5,2.0,30.43,West,275,0.0,0.0,89,0.00,,,0.08,Wunderground v.1.15,2013-03-07 06:38:00,
2013-03-07 00:44:00,4.4,1.9,30.43,West,275,0.0,0.0,89,0.00,,,0.08,Wunderground v.1.15,2013-03-07 06:44:00,
2013-03-07 00:50:00,4.3,1.8,30.43,West,275,0.0,0.0,89,0.00,,,0.08,Wunderground v.1.15,2013-03-07 06:50:00,
2013-03-07 00:55:00,4.2,1.7,30.43,West,275,0.0,0.0,89,0.00,,,0.08,Wunderground v.1.15,2013-03-07 06:55:00,
2013-03-07 01:01:00,4.2,1.7,30.43,West,275,0.0,0.0,89,0.00,,,0.08,Wunderground v.1.15,2013-03-07 07:01:00,
2013-03-07 01:07:00,4.1,1.6,30.42,West,275,0.0,0.0,89,0.00,,,0.08,Wunderground v.1.15,2013-03-07 07:07:00,
2013-03-07 01:13:00,3.9,1.4,30.42,West,275,0.0,0.0,89,0.00,,,0.08,Wunderground v.1.15,2013-03-07 07:13:00,
2013-03-07 01:19:00,3.8,1.3,30.42,West,275,0.0,0.0,89,0.00,,,0.08,Wunderground v.1.15,2013-03-07 07:19:00,
2013-03-07 01:24:00,3.6,1.1,30.42,West,275,0.0,0.0,89,0.00,,,0.08,Wunderground v.1.15,2013-03-07 07:24:00,
2013-03-07 01:29:00,3.8,1.3,30.43,West,275,0.0,0.0,89,0.00,,,0.08,Wunderground v.1.15,2013-03-07 07:29:00,
2013-03-07 01:35:00,3.9,1.6,30.43,West,275,0.0,0.0,90,0.00,,,0.08,Wunderground v.1.15,2013-03-07 07:35:00,
2013-03-07 01:40:00,3.7,1.2,30.43,West,275,0.0,0.0,89,0.00,,,0.08,Wunderground v.1.15,2013-03-07 07:40:00,
2013-03-07 01:46:00,3.6,1.1,30.44,West,275,0.0,0.0,89,0.00,,,0.08,Wunderground v.1.15,2013-03-07 07:46:00,
2013-03-07 01:51:00,3.5,1.0,30.43,West,275,0.0,0.0,89,0.00,,,0.08,Wunderground v.1.15,2013-03-07 07:51:00,
2013-03-07 01:57:00,3.4,0.9,30.44,West,275,0.0,0.0,89,0.00,,,0.08,Wunderground v.1.15,2013-03-07 07:57:00,
2013-03-07 02:02:00,3.3,0.5,30.44,West,275,0.0,0.0,88,0.00,,,0.08,Wunderground v.1.15,2013-03-07 08:02:00,
2013-03-07 02:07:00,3.2,0.4,30.43,West,275,0.0,0.0,88,0.00,,,0.08,Wunderground v.1.15,2013-03-07 08:07:00,
2013-03-07 02:12:00,3.1,0.6,30.44,West,275,0.0,0.0,89,0.00,,,0.08,Wunderground v.1.15,2013-03-07 08:12:00,
2013-03-07 02:17:00,3.1,0.6,30.44,West,275,0.0,0.0,89,0.00,,,0.08,Wunderground v.1.15,2013-03-07 08:17:00,
2013-03-07 02:23:00,3.1,0.6,30.44,West,275,0.0,0.0,89,0.00,,,0.08,Wunderground v.1.15,2013-03-07 08:23:00,
2013-03-07 02:28:00,3.1,0.6,30.44,West,275,0.0,0.0,89,0.00,,,0.08,Wunderground v.1.15,2013-03-07 08:28:00,
2013-03-07 02:33:00,3.1,0.6,30.44,West,275,0.0,0.0,89,0.00,,,0.00,Wunderground v.1.15,2013-03-07 08:33:00,
2013-03-07 02:38:00,3.1,0.6,30.43,West,275,0.0,0.0,89,0.00,,,0.00,Wunderground v.1.15,2013-03-07 08:38:00,
2013-03-07 02:43:00,3.1,0.6,30.43,West,275,0.0,0.0,89,0.00,,,0.00,Wunderground v.1.15,2013-03-07 08:43:00,
2013-03-07 02:48:00,3.0,0.5,30.43,West,275,0.0,0.0,89,0.00,,,0.00,Wunderground v.1.15,2013-03-07 08:48:00,
2013-03-07 02:53:00,2.9,0.4,30.44,West,275,0.0,0.0,89,0.00,,,0.00,Wunderground v.1.15,2013-03-07 08:53:00,
2013-03-07 02:59:00,2.9,0.4,30.44,West,275,0.0,0.0,89,0.00,,,0.00,Wunderground v.1.15,2013-03-07 08:59:00,
2013-03-07 03:04:00,2.9,0.4,30.44,West,275,0.0,0.0,89,0.00,,,0.00,Wunderground v.1.15,2013-03-07 09:04:00,
2013-03-07 03:09:00,2.9,0.4,30.44,West,275,0.0,0.0,89,0.00,,,0.00,Wunderground v.1.15,2013-03-07 09:09:00,
2013-03-07 03:14:00,2.8,0.3,30.44,West,275,0.0,0.0,89,0.00,,,0.00,Wunderground v.1.15,2013-03-07 09:14:00,
2013-03-07 03:19:00,2.8,0.3,30.44,West,275,0.0,0.0,89,0.00,,,0.00,Wunderground v.1.15,2013-03-07 09:19:00,
2013-03-07 03:24:00,2.7,0.2,30.44,West,275,0.0,0.0,89,0.00,,,0.00,Wunderground v.1.15,2013-03-07 09:24:00,
2013-03-07 03:30:00,2.6,0.1,30.44,West,275,0.0,0.0,89,0.00,,,0.00,Wunderground v.1.15,2013-03-07 09:30:00,
2013-03-07 03:35:00,2.6,0.1,30.44,West,275,0.0,0.0,89,0.00,,,0.00,Wunderground v.1.15,2013-03-07 09:35:00,
2013-03-07 03:40:00,2.4,-0.1,30.44,West,275,0.0,0.0,89,0.00,,,0.00,Wunderground v.1.15,2013-03-07 09:40:00,
2013-03-07 03:45:00,2.4,-0.3,30.44,West,275,0.0,0.0,88,0.00,,,0.00,Wunderground v.1.15,2013-03-07 09:45:00,
2013-03-07 03:50:00,2.3,-0.4,30.44,West,275,0.0,0.0,88,0.00,,,0.00,Wunderground v.1.15,2013-03-07 09:50:00,
2013-03-07 03:55:00,2.2,-0.3,30.44,West,275,0.0,0.0,89,0.00,,,0.00,Wunderground v.1.15,2013-03-07 09:55:00,
2013-03-07 04:00:00,2.2,-0.5,30.44,West,275,0.0,0.0,88,0.00,,,0.00,Wunderground v.1.15,2013-03-07 10:00:00,
2013-03-07 04:06:00,2.0,-0.7,30.44,West,275,0.0,0.0,88,0.00,,,0.00,Wunderground v.1.15,2013-03-07 10:06:00,
2013-03-07 04:11:00,2.0,-0.7,30.44,West,275,0.0,0.0,88,0.00,,,0.00,Wunderground v.1.15,2013-03-07 10:11:00,
2013-03-07 04:16:00,1.9,-0.8,30.44,West,275,0.0,0.0,88,0.00,,,0.00,Wunderground v.1.15,2013-03-07 10:16:00,
2013-03-07 04:21:00,1.8,-0.9,30.44,West,275,0.0,0.0,88,0.00,,,0.00,Wunderground v.1.15,2013-03-07 10:21:00,
2013-03-07 04:26:00,1.7,-1.0,30.44,West,275,0.0,0.0,88,0.00,,,0.00,Wunderground v.1.15,2013-03-07 10:26:00,
2013-03-07 04:31:00,1.6,-1.1,30.44,West,275,0.0,0.0,88,0.00,,,0.00,Wunderground v.1.15,2013-03-07 10:31:00,
2013-03-07 04:36:00,1.4,-1.3,30.43,West,275,0.0,0.0,88,0.00,,,0.00,Wunderground v.1.15,2013-03-07 10:36:00,
2013-03-07 04:41:00,1.4,-1.3,30.43,West,275,0.0,0.0,88,0.00,,,0.00,Wunderground v.1.15,2013-03-07 10:41:00,
2013-03-07 04:47:00,1.3,-1.4,30.43,West,275,0.0,0.0,88,0.00,,,0.00,Wunderground v.1.15,2013-03-07 10:47:00,
2013-03-07 04:52:00,1.4,-1.1,30.44,West,275,0.0,0.0,89,0.00,,,0.00,Wunderground v.1.15,2013-03-07 10:52:00,
2013-03-07 04:57:00,1.4,-1.1,30.44,West,275,0.0,0.0,89,0.00,,,0.00,Wunderground v.1.15,2013-03-07 10:57:00,
2013-03-07 05:02:00,1.5,-1.0,30.44,West,275,0.0,0.0,89,0.00,,,0.00,Wunderground v.1.15,2013-03-07 11:02:00,
2013-03-07 05:07:00,1.4,-1.1,30.44,West,275,0.0,0.0,89,0.00,,,0.00,Wunderground v.1.15,2013-03-07 11:07:00,
2013-03-07 05:12:00,1.3,-1.2,30.44,West,275,0.0,0.0,89,0.00,,,0.00,Wunderground v.1.15,2013-03-07 11:12:00,
2013-03-07 05:18:00,1.4,-1.1,30.44,West,275,0.0,0.0,89,0.00,,,0.00,Wunderground v.1.15,2013-03-07 11:18:00,
2013-03-07 05:23:00,1.5,-1.0,30.44,West,275,0.0,0.0,89,0.00,,,0.00,Wunderground v.1.15,2013-03-07 11:23:00,
2013-03-07 05:28:00,1.5,-1.0,30.45,West,275,0.0,0.0,89,0.00,,,0.00,Wunderground v.1.15,2013-03-07 11:28:00,
2013-03-07 05:33:00,1.4,-1.1,30.45,West,275,0.0,0.0,89,0.00,,,0.00,Wunderground v.1.15,2013-03-07 11:33:00,
2013-03-07 05:38:00,1.2,-1.5,30.45,West,275,0.0,0.0,88,0.00,,,0.00,Wunderground v.1.15,2013-03-07 11:38:00,
2013-03-07 05:43:00,1.1,-1.6,30.45,West,275,0.0,0.0,88,0.00,,,0.00,Wunderground v.1.15,2013-03-07 11:43:00,
2013-03-07 05:48:00,1.0,-1.7,30.45,West,275,0.0,0.0,88,0.00,,,0.00,Wunderground v.1.15,2013-03-07 11:48:00,
2013-03-07 05:53:00,0.9,-1.8,30.45,West,275,0.0,0.0,88,0.00,,,0.00,Wunderground v.1.15,2013-03-07 11:53:00,
2013-03-07 05:58:00,0.8,-1.9,30.45,West,275,0.0,0.0,88,0.00,,,0.00,Wunderground v.1.15,2013-03-07 11:58:00,
2013-03-07 06:04:00,0.8,-1.9,30.45,West,275,0.0,0.0,88,0.00,,,0.00,Wunderground v.1.15,2013-03-07 12:04:00,
2013-03-07 06:09:00,0.8,-1.9,30.45,West,275,0.0,0.0,88,0.00,,,0.00,Wunderground v.1.15,2013-03-07 12:09:00,
2013-03-07 06:14:00,0.8,-1.7,30.45,West,275,0.0,0.0,89,0.00,,,0.00,Wunderground v.1.15,2013-03-07 12:14:00,
2013-03-07 06:19:00,0.8,-1.9,30.46,West,275,0.0,0.0,88,0.00,,,0.00,Wunderground v.1.15,2013-03-07 12:19:00,
2013-03-07 06:24:00,0.8,-1.9,30.45,West,275,0.0,0.0,88,0.00,,,0.00,Wunderground v.1.15,2013-03-07 12:24:00,
2013-03-07 06:30:00,0.9,-1.8,30.45,West,275,0.0,0.0,88,0.00,,,0.00,Wunderground v.1.15,2013-03-07 12:30:00,
2013-03-07 06:35:00,0.9,-1.6,30.45,West,275,0.0,0.0,89,0.00,,,0.00,Wunderground v.1.15,2013-03-07 12:35:00,
2013-03-07 06:40:00,0.9,-1.8,30.46,West,275,0.0,0.0,88,0.00,,,0.00,Wunderground v.1.15,2013-03-07 12:40:00,
2013-03-07 06:45:00,0.9,-1.8,30.45,West,275,0.0,0.0,88,0.00,,,0.00,Wunderground v.1.15,2013-03-07 12:45:00,
2013-03-07 06:50:00,0.9,-1.8,30.45,West,275,0.0,0.0,88,0.00,,,0.00,Wunderground v.1.15,2013-03-07 12:50:00,
2013-03-07 06:55:00,0.9,-1.8,30.46,West,275,0.0,0.0,88,0.00,,,0.00,Wunderground v.1.15,2013-03-07 12:55:00,
2013-03-07 07:00:00,1.0,-1.5,30.46,West,275,0.0,0.0,89,0.00,,,0.00,Wunderground v.1.15,2013-03-07 13:00:00,
2013-03-07 07:05:00,1.2,-1.3,30.46,West,275,0.0,0.0,89,0.00,,,0.00,Wunderground v.1.15,2013-03-07 13:05:00,
2013-03-07 07:10:00,1.4,-1.1,30.46,West,275,0.0,0.0,89,0.00,,,0.00,Wunderground v.1.15,2013-03-07 13:10:00,
2013-03-07 07:15:00,1.5,-1.0,30.45,West,275,0.0,0.0,89,0.00,,,0.00,Wunderground v.1.15,2013-03-07 13:15:00,
2013-03-07 07:20:00,1.7,-0.8,30.45,West,275,0.0,0.0,89,0.00,,,0.00,Wunderground v.1.15,2013-03-07 13:20:00,
2013-03-07 07:25:00,2.0,-0.3,30.44,West,275,0.0,0.0,90,0.00,,,0.00,Wunderground v.1.15,2013-03-07 13:25:00,
2013-03-07 07:30:00,2.4,0.1,30.44,West,275,0.0,0.0,90,0.00,,,0.00,Wunderground v.1.15,2013-03-07 13:30:00,
2013-03-07 07:35:00,2.9,0.6,30.43,West,275,0.0,0.0,90,0.00,,,0.00,Wunderground v.1.15,2013-03-07 13:35:00,
2013-03-07 07:40:00,3.5,1.5,30.44,West,275,0.0,0.0,91,0.00,,,0.00,Wunderground v.1.15,2013-03-07 13:40:00,
2013-03-07 07:46:00,4.1,2.1,30.44,West,275,0.0,0.0,91,0.00,,,0.00,Wunderground v.1.15,2013-03-07 13:46:00,
2013-03-07 07:51:00,4.7,2.7,30.44,West,275,0.0,0.0,91,0.00,,,0.00,Wunderground v.1.15,2013-03-07 13:51:00,
2013-03-07 07:56:00,5.7,3.9,30.44,West,275,0.0,0.0,92,0.00,,,0.00,Wunderground v.1.15,2013-03-07 13:56:00,
2013-03-07 08:01:00,7.1,5.5,30.44,West,275,0.0,0.0,93,0.00,,,0.00,Wunderground v.1.15,2013-03-07 14:01:00,
2013-03-07 08:06:00,8.4,7.0,30.45,ESE,120,1.0,2.0,94,0.00,,,0.00,Wunderground v.1.15,2013-03-07 14:06:00,
2013-03-07 08:12:00,10.0,8.9,30.45,ESE,119,0.0,4.0,95,0.00,,,0.00,Wunderground v.1.15,2013-03-07 14:12:00,
2013-03-07 08:17:00,11.4,10.2,30.45,ESE,118,4.0,4.0,95,0.00,,,0.00,Wunderground v.1.15,2013-03-07 14:17:00,
2013-03-07 08:22:00,12.8,11.6,30.45,SE,131,0.0,2.0,95,0.00,,,0.00,Wunderground v.1.15,2013-03-07 14:22:00,
2013-03-07 08:27:00,13.6,12.4,30.46,SE,131,0.0,4.0,95,0.00,,,0.00,Wunderground v.1.15,2013-03-07 14:27:00,
2013-03-07 08:32:00,14.0,12.6,30.46,SE,131,0.0,4.0,94,0.00,,,0.00,Wunderground v.1.15,2013-03-07 14:32:00,
2013-03-07 08:37:00,14.3,12.6,30.46,SE,131,1.0,5.0,93,0.00,,,0.00,Wunderground v.1.15,2013-03-07 14:37:00,
2013-03-07 08:42:00,14.6,12.7,30.47,SE,131,0.0,2.0,92,0.00,,,0.00,Wunderground v.1.15,2013-03-07 14:42:00,
2013-03-07 08:47:00,15.1,13.2,30.47,SSW,193,2.0,5.0,92,0.00,,,0.00,Wunderground v.1.15,2013-03-07 14:47:00,
2013-03-07 08:52:00,15.8,13.9,30.47,South,182,1.0,3.0,92,0.00,,,0.00,Wunderground v.1.15,2013-03-07 14:52:00,
2013-03-07 08:57:00,16.6,14.4,30.47,South,182,1.0,3.0,91,0.00,,,0.00,Wunderground v.1.15,2013-03-07 14:57:00,
2013-03-07 09:02:00,17.2,14.8,30.47,South,175,1.0,6.0,90,0.00,,,0.00,Wunderground v.1.15,2013-03-07 15:02:00,
2013-03-07 09:07:00,17.8,15.1,30.47,SE,146,0.0,6.0,89,0.00,,,0.00,Wunderground v.1.15,2013-03-07 15:07:00,
2013-03-07 09:12:00,18.7,15.7,30.46,SE,144,0.0,5.0,88,0.00,,,0.00,Wunderground v.1.15,2013-03-07 15:12:00,
2013-03-07 09:17:00,19.6,16.1,30.47,SSE,158,0.0,6.0,86,0.00,,,0.00,Wunderground v.1.15,2013-03-07 15:17:00,
2013-03-07 09:23:00,20.2,16.1,30.46,SE,144,0.0,6.0,84,0.00,,,0.00,Wunderground v.1.15,2013-03-07 15:23:00,
2013-03-07 09:28:00,20.7,16.4,30.46,SSE,153,5.0,7.0,83,0.00,,,0.00,Wunderground v.1.15,2013-03-07 15:28:00,
2013-03-07 09:33:00,21.1,16.5,30.46,SE,127,4.0,7.0,82,0.00,,,0.00,Wunderground v.1.15,2013-03-07 15:33:00,
2013-03-07 09:38:00,21.2,16.3,30.46,SE,143,6.0,8.0,81,0.00,,,0.00,Wunderground v.1.15,2013-03-07 15:38:00,
2013-03-07 09:43:00,21.6,16.1,30.46,East,91,7.0,7.0,79,0.00,,,0.00,Wunderground v.1.15,2013-03-07 15:43:00,
2013-03-07 09:48:00,21.8,16.3,30.46,ESE,114,7.0,8.0,79,0.00,,,0.00,Wunderground v.1.15,2013-03-07 15:48:00,
2013-03-07 09:53:00,22.1,16.6,30.46,SSE,147,0.0,7.0,79,0.00,,,0.00,Wunderground v.1.15,2013-03-07 15:53:00,
2013-03-07 09:58:00,22.7,16.9,30.46,SSE,157,5.0,7.0,78,0.00,,,0.00,Wunderground v.1.15,2013-03-07 15:58:00,
2013-03-07 10:04:00,22.9,16.8,30.46,SE,130,4.0,8.0,77,0.00,,,0.00,Wunderground v.1.15,2013-03-07 16:04:00,
2013-03-07 10:09:00,23.4,17.3,30.46,SE,138,4.0,8.0,77,0.00,,,0.00,Wunderground v.1.15,2013-03-07 16:09:00,
2013-03-07 10:14:00,23.8,17.3,30.46,SE,137,1.0,6.0,76,0.00,,,0.00,Wunderground v.1.15,2013-03-07 16:14:00,
2013-03-07 10:19:00,24.2,17.4,30.47,SE,129,5.0,7.0,75,0.00,,,0.00,Wunderground v.1.15,2013-03-07 16:19:00,
2013-03-07 10:24:00,24.8,18.3,30.46,SE,138,5.0,7.0,76,0.00,,,0.00,Wunderground v.1.15,2013-03-07 16:24:00,
2013-03-07 10:29:00,25.5,18.4,30.46,SE,127,4.0,7.0,74,0.00,,,0.00,Wunderground v.1.15,2013-03-07 16:29:00,
2013-03-07 10:34:00,26.1,18.3,30.46,SE,132,5.0,8.0,72,0.00,,,0.00,Wunderground v.1.15,2013-03-07 16:34:00,
2013-03-07 10:40:00,26.3,18.5,30.46,SE,144,4.0,8.0,72,0.00,,,0.00,Wunderground v.1.15,2013-03-07 16:40:00,
2013-03-07 10:45:00,26.9,19.1,30.46,ESE,122,0.0,7.0,72,0.00,,,0.00,Wunderground v.1.15,2013-03-07 16:45:00,
2013-03-07 10:50:00,27.4,19.6,30.46,ESE,122,0.0,7.0,72,0.00,,,0.00,Wunderground v.1.15,2013-03-07 16:50:00,
2013-03-07 10:55:00,27.9,19.7,30.46,East,93,6.0,7.0,71,0.00,,,0.00,Wunderground v.1.15,2013-03-07 16:55:00,
2013-03-07 11:00:00,28.7,20.1,30.46,East,97,5.0,5.0,70,0.00,,,0.00,Wunderground v.1.15,2013-03-07 17:00:00,
2013-03-07 11:05:00,28.9,20.0,30.45,South,173,9.0,9.0,69,0.00,,,0.00,Wunderground v.1.15,2013-03-07 17:05:00,
2013-03-07 11:11:00,28.5,20.0,30.45,ESE,119,4.0,5.0,70,0.00,,,0.01,Wunderground v.1.15,2013-03-07 17:11:00,
2013-03-07 11:16:00,28.9,20.0,30.45,SE,142,9.0,14.0,69,0.00,,,0.01,Wunderground v.1.15,2013-03-07 17:16:00,
2013-03-07 11:21:00,29.2,20.3,30.45,ENE,67,5.0,11.0,69,0.00,,,0.01,Wunderground v.1.15,2013-03-07 17:21:00,
2013-03-07 11:26:00,29.5,20.2,30.45,SSE,151,5.0,11.0,68,0.00,,,0.01,Wunderground v.1.15,2013-03-07 17:26:00,
2013-03-07 11:31:00,30.0,20.7,30.45,SE,138,5.0,5.0,68,0.00,,,0.01,Wunderground v.1.15,2013-03-07 17:31:00,
2013-03-07 11:36:00,31.0,22.0,30.45,East,90,7.0,7.0,69,0.00,,,0.01,Wunderground v.1.15,2013-03-07 17:36:00,
2013-03-07 11:41:00,31.5,21.4,30.44,East,79,3.0,4.0,66,0.00,,,0.01,Wunderground v.1.15,2013-03-07 17:41:00,
2013-03-07 11:46:00,31.9,21.5,30.44,ENE,76,0.0,7.0,65,0.00,,,0.01,Wunderground v.1.15,2013-03-07 17:46:00,
2013-03-07 11:52:00,31.3,20.5,30.44,SSW,207,8.0,11.0,64,0.00,,,0.01,Wunderground v.1.15,2013-03-07 17:52:00,
2013-03-07 11:57:00,31.2,20.4,30.44,SE,126,1.0,11.0,64,0.00,,,0.01,Wunderground v.1.15,2013-03-07 17:57:00,
2013-03-07 12:02:00,31.9,21.5,30.44,South,176,7.0,7.0,65,0.00,,,0.01,Wunderground v.1.15,2013-03-07 18:02:00,
2013-03-07 12:08:00,32.3,21.1,30.44,South,171,9.0,9.0,63,0.00,,,0.01,Wunderground v.1.15,2013-03-07 18:08:00,
2013-03-07 12:13:00,31.6,20.4,30.44,ENE,75,4.0,10.0,63,0.00,,,0.01,Wunderground v.1.15,2013-03-07 18:13:00,
2013-03-07 12:18:00,32.0,20.8,30.44,ESE,102,0.0,11.0,63,0.00,,,0.01,Wunderground v.1.15,2013-03-07 18:18:00,
2013-03-07 12:23:00,32.8,21.2,30.44,ESE,119,2.0,9.0,62,0.00,,,0.01,Wunderground v.1.15,2013-03-07 18:23:00,
2013-03-07 12:28:00,33.1,21.5,30.44,South,172,4.0,11.0,62,0.00,,,0.01,Wunderground v.1.15,2013-03-07 18:28:00,
2013-03-07 12:33:00,33.1,21.1,30.44,SSE,157,2.0,7.0,61,0.00,,,0.02,Wunderground v.1.15,2013-03-07 18:33:00,
2013-03-07 12:39:00,33.7,21.7,30.44,SSE,156,8.0,9.0,61,0.00,,,0.02,Wunderground v.1.15,2013-03-07 18:39:00,
2013-03-07 12:44:00,33.2,20.8,30.43,SE,133,7.0,12.0,60,0.00,,,0.02,Wunderground v.1.15,2013-03-07 18:44:00,
2013-03-07 12:49:00,33.0,20.6,30.43,SSE,165,0.0,12.0,60,0.00,,,0.02,Wunderground v.1.15,2013-03-07 18:49:00,
2013-03-07 12:54:00,33.4,21.8,30.43,ENE,64,2.0,10.0,62,0.00,,,0.02,Wunderground v.1.15,2013-03-07 18:54:00,
2013-03-07 13:00:00,33.4,21.0,30.43,SSE,149,1.0,14.0,60,0.00,,,0.02,Wunderground v.1.15,2013-03-07 19:00:00,
2013-03-07 13:05:00,33.2,21.2,30.43,South,175,8.0,12.0,61,0.00,,,0.03,Wunderground v.1.15,2013-03-07 19:05:00,
2013-03-07 13:10:00,33.2,21.2,30.42,SE,126,5.0,7.0,61,0.00,,,0.03,Wunderground v.1.15,2013-03-07 19:10:00,
2013-03-07 13:15:00,33.5,21.5,30.42,SSE,158,6.0,14.0,61,0.00,,,0.03,Wunderground v.1.15,2013-03-07 19:15:00,
2013-03-07 13:20:00,34.1,21.7,30.41,SE,128,7.0,7.0,60,0.00,,,0.03,Wunderground v.1.15,2013-03-07 19:20:00,
2013-03-07 13:26:00,33.9,20.7,30.41,East,100,6.0,12.0,58,0.00,,,0.04,Wunderground v.1.15,2013-03-07 19:26:00,
2013-03-07 13:31:00,33.9,21.5,30.41,South,187,3.0,6.0,60,0.00,,,0.04,Wunderground v.1.15,2013-03-07 19:31:00,
2013-03-07 13:36:00,34.2,20.9,30.41,SSE,159,8.0,10.0,58,0.00,,,0.04,Wunderground v.1.15,2013-03-07 19:36:00,
2013-03-07 13:41:00,34.4,21.5,30.41,ESE,106,6.0,9.0,59,0.00,,,0.04,Wunderground v.1.15,2013-03-07 19:41:00,
2013-03-07 13:46:00,34.3,21.0,30.41,ESE,114,2.0,15.0,58,0.00,,,0.04,Wunderground v.1.15,2013-03-07 19:46:00,
2013-03-07 13:52:00,34.4,21.5,30.41,SE,132,8.0,8.0,59,0.00,,,0.05,Wunderground v.1.15,2013-03-07 19:52:00,
2013-03-07 13:57:00,34.4,21.1,30.41,SSE,150,7.0,13.0,58,0.00,,,0.05,Wunderground v.1.15,2013-03-07 19:57:00,
2013-03-07 14:02:00,34.2,20.5,30.41,SSE,148,5.0,9.0,57,0.00,,,0.05,Wunderground v.1.15,2013-03-07 20:02:00,
2013-03-07 14:07:00,33.8,20.2,30.41,SSE,163,12.0,12.0,57,0.00,,,0.05,Wunderground v.1.15,2013-03-07 20:07:00,
2013-03-07 14:12:00,34.1,21.3,30.40,ESE,102,0.0,8.0,59,0.00,,,0.06,Wunderground v.1.15,2013-03-07 20:12:00,
2013-03-07 14:17:00,34.6,21.3,30.40,SSE,148,7.0,12.0,58,0.00,,,0.06,Wunderground v.1.15,2013-03-07 20:17:00,
2013-03-07 14:22:00,34.3,20.6,30.40,South,174,5.0,8.0,57,0.00,,,0.06,Wunderground v.1.15,2013-03-07 20:22:00,
2013-03-07 14:28:00,34.5,20.8,30.40,SE,130,7.0,11.0,57,0.00,,,0.06,Wunderground v.1.15,2013-03-07 20:28:00,
2013-03-07 14:33:00,34.3,20.6,30.40,SE,130,0.0,9.0,57,0.00,,,0.06,Wunderground v.1.15,2013-03-07 20:33:00,
2013-03-07 14:38:00,34.4,20.7,30.40,SSE,149,7.0,11.0,57,0.00,,,0.06,Wunderground v.1.15,2013-03-07 20:38:00,
2013-03-07 14:43:00,34.5,20.8,30.40,SE,144,6.0,9.0,57,0.00,,,0.07,Wunderground v.1.15,2013-03-07 20:43:00,
2013-03-07 14:48:00,34.4,22.3,30.40,East,84,2.0,12.0,61,0.00,,,0.07,Wunderground v.1.15,2013-03-07 20:48:00,
2013-03-07 14:53:00,34.3,21.0,30.40,SSE,150,6.0,11.0,58,0.00,,,0.07,Wunderground v.1.15,2013-03-07 20:53:00,
2013-03-07 14:58:00,34.4,20.7,30.40,SSE,147,6.0,15.0,57,0.00,,,0.07,Wunderground v.1.15,2013-03-07 20:58:00,
2013-03-07 15:03:00,34.5,20.8,30.40,ESE,122,14.0,14.0,57,0.00,,,0.07,Wunderground v.1.15,2013-03-07 21:03:00,
2013-03-07 15:08:00,34.3,21.4,30.40,ESE,119,1.0,14.0,59,0.00,,,0.07,Wunderground v.1.15,2013-03-07 21:08:00,
2013-03-07 15:13:00,34.7,21.4,30.40,SE,146,5.0,12.0,58,0.00,,,0.08,Wunderground v.1.15,2013-03-07 21:13:00,
2013-03-07 15:19:00,34.9,21.2,30.39,South,171,4.0,12.0,57,0.00,,,0.08,Wunderground v.1.15,2013-03-07 21:19:00,
2013-03-07 15:24:00,34.8,21.1,30.39,SE,139,5.0,11.0,57,0.00,,,0.08,Wunderground v.1.15,2013-03-07 21:24:00,
2013-03-07 15:29:00,35.2,21.9,30.39,SE,146,7.0,11.0,58,0.00,,,0.08,Wunderground v.1.15,2013-03-07 21:29:00,
2013-03-07 15:34:00,35.7,21.9,30.39,SE,131,2.0,7.0,57,0.00,,,0.08,Wunderground v.1.15,2013-03-07 21:34:00,
2013-03-07 15:39:00,35.6,21.4,30.39,SE,138,8.0,12.0,56,0.00,,,0.08,Wunderground v.1.15,2013-03-07 21:39:00,
2013-03-07 15:44:00,35.2,21.5,30.39,South,182,0.0,10.0,57,0.00,,,0.08,Wunderground v.1.15,2013-03-07 21:44:00,
2013-03-07 15:50:00,35.3,21.6,30.39,SSE,148,0.0,10.0,57,0.00,,,0.08,Wunderground v.1.15,2013-03-07 21:50:00,
2013-03-07 15:55:00,35.4,21.7,30.39,SSE,167,2.0,11.0,57,0.00,,,0.09,Wunderground v.1.15,2013-03-07 21:55:00,
2013-03-07 16:00:00,35.7,21.9,30.39,ESE,108,0.0,11.0,57,0.00,,,0.09,Wunderground v.1.15,2013-03-07 22:00:00,
2013-03-07 16:06:00,36.0,21.8,30.39,South,174,4.0,12.0,56,0.00,,,0.09,Wunderground v.1.15,2013-03-07 22:06:00,
2013-03-07 16:11:00,36.0,21.4,30.39,SSE,155,5.0,12.0,55,0.00,,,0.09,Wunderground v.1.15,2013-03-07 22:11:00,
2013-03-07 16:16:00,35.6,21.9,30.39,SE,139,5.0,12.0,57,0.00,,,0.09,Wunderground v.1.15,2013-03-07 22:16:00,
2013-03-07 16:21:00,35.2,21.1,30.39,SSE,153,4.0,6.0,56,0.00,,,0.09,Wunderground v.1.15,2013-03-07 22:21:00,
2013-03-07 16:26:00,35.1,21.4,30.39,SE,139,0.0,8.0,57,0.00,,,0.10,Wunderground v.1.15,2013-03-07 22:26:00,
2013-03-07 16:31:00,35.2,21.9,30.38,ESE,121,1.0,5.0,58,0.00,,,0.10,Wunderground v.1.15,2013-03-07 22:31:00,
2013-03-07 16:36:00,35.3,21.6,30.38,SSE,158,0.0,5.0,57,0.00,,,0.10,Wunderground v.1.15,2013-03-07 22:36:00,
2013-03-07 16:41:00,35.3,21.6,30.38,ESE,117,4.0,4.0,57,0.00,,,0.10,Wunderground v.1.15,2013-03-07 22:41:00,
2013-03-07 16:46:00,34.9,21.6,30.38,SE,140,2.0,8.0,58,0.00,,,0.10,Wunderground v.1.15,2013-03-07 22:46:00,
2013-03-07 16:51:00,34.7,21.8,30.38,SE,133,8.0,8.0,59,0.00,,,0.10,Wunderground v.1.15,2013-03-07 22:51:00,
2013-03-07 16:56:00,34.3,21.4,30.38,East,99,8.0,11.0,59,0.00,,,0.10,Wunderground v.1.15,2013-03-07 22:56:00,
2013-03-07 17:01:00,33.9,21.1,30.37,East,93,6.0,8.0,59,0.00,,,0.10,Wunderground v.1.15,2013-03-07 23:01:00,
2013-03-07 17:06:00,33.8,21.4,30.37,SE,131,4.0,9.0,60,0.00,,,0.10,Wunderground v.1.15,2013-03-07 23:06:00,
2013-03-07 17:12:00,33.7,21.7,30.37,SE,126,2.0,6.0,61,0.00,,,0.10,Wunderground v.1.15,2013-03-07 23:12:00,
2013-03-07 17:17:00,33.5,21.5,30.38,East,89,4.0,7.0,61,0.00,,,0.10,Wunderground v.1.15,2013-03-07 23:17:00,
2013-03-07 17:22:00,33.3,21.3,30.37,ESE,114,2.0,8.0,61,0.00,,,0.10,Wunderground v.1.15,2013-03-07 23:22:00,
2013-03-07 17:27:00,33.0,21.0,30.38,ESE,107,7.0,8.0,61,0.00,,,0.10,Wunderground v.1.15,2013-03-07 23:27:00,
2013-03-07 17:32:00,32.7,21.1,30.37,ESE,116,2.0,6.0,62,0.00,,,0.10,Wunderground v.1.15,2013-03-07 23:32:00,
2013-03-07 17:37:00,32.4,21.2,30.37,ESE,103,5.0,8.0,63,0.00,,,0.10,Wunderground v.1.15,2013-03-07 23:37:00,
2013-03-07 17:43:00,32.1,20.9,30.37,ESE,123,5.0,5.0,63,0.00,,,0.10,Wunderground v.1.15,2013-03-07 23:43:00,
2013-03-07 17:48:00,31.8,21.0,30.37,ESE,110,0.0,9.0,64,0.00,,,0.10,Wunderground v.1.15,2013-03-07 23:48:00,
2013-03-07 17:53:00,31.6,20.8,30.37,SE,135,5.0,9.0,64,0.00,,,0.10,Wunderground v.1.15,2013-03-07 23:53:00,
2013-03-07 17:58:00,31.4,21.0,30.37,ESE,108,0.0,9.0,65,0.00,,,0.10,Wunderground v.1.15,2013-03-07 23:58:00,
2013-03-07 18:03:00,31.0,21.0,30.37,East,92,0.0,6.0,66,0.00,,,0.10,Wunderground v.1.15,2013-03-08 00:03:00,
2013-03-07 18:08:00,30.8,20.8,30.37,East,92,0.0,6.0,66,0.00,,,0.10,Wunderground v.1.15,2013-03-08 00:08:00,
2013-03-07 18:13:00,30.5,20.5,30.37,East,92,0.0,2.0,66,0.00,,,0.10,Wunderground v.1.15,2013-03-08 00:13:00,
2013-03-07 18:19:00,30.4,20.7,30.37,SSE,147,0.0,7.0,67,0.00,,,0.10,Wunderground v.1.15,2013-03-08 00:19:00,
2013-03-07 18:24:00,30.3,20.6,30.36,SSE,150,4.0,7.0,67,0.00,,,0.10,Wunderground v.1.15,2013-03-08 00:24:00,
2013-03-07 18:29:00,30.3,20.3,30.36,ESE,109,4.0,8.0,66,0.00,,,0.10,Wunderground v.1.15,2013-03-08 00:29:00,
2013-03-07 18:34:00,30.2,20.2,30.36,ESE,118,2.0,8.0,66,0.00,,,0.10,Wunderground v.1.15,2013-03-08 00:34:00,
2013-03-07 18:39:00,30.1,20.1,30.36,ESE,112,4.0,8.0,66,0.00,,,0.10,Wunderground v.1.15,2013-03-08 00:39:00,
2013-03-07 18:44:00,30.0,20.4,30.36,SSE,149,2.0,6.0,67,0.00,,,0.10,Wunderground v.1.15,2013-03-08 00:44:00,
2013-03-07 18:50:00,29.8,20.2,30.36,ESE,111,6.0,7.0,67,0.00,,,0.10,Wunderground v.1.15,2013-03-08 00:50:00,
2013-03-07 18:55:00,29.7,20.4,30.36,SE,137,5.0,6.0,68,0.00,,,0.10,Wunderground v.1.15,2013-03-08 00:55:00,
2013-03-07 19:00:00,29.6,20.3,30.36,SE,126,2.0,6.0,68,0.00,,,0.10,Wunderground v.1.15,2013-03-08 01:00:00,
2013-03-07 19:05:00,29.4,20.1,30.36,SE,126,2.0,4.0,68,0.00,,,0.10,Wunderground v.1.15,2013-03-08 01:05:00,
2013-03-07 19:10:00,29.3,20.4,30.37,SE,138,7.0,7.0,69,0.00,,,0.10,Wunderground v.1.15,2013-03-08 01:10:00,
2013-03-07 19:15:00,29.1,20.2,30.36,ESE,107,5.0,7.0,69,0.00,,,0.10,Wunderground v.1.15,2013-03-08 01:15:00,
2013-03-07 19:20:00,29.0,20.4,30.37,ESE,111,4.0,4.0,70,0.00,,,0.10,Wunderground v.1.15,2013-03-08 01:20:00,
2013-03-07 19:25:00,28.9,20.3,30.36,ESE,115,1.0,7.0,70,0.00,,,0.10,Wunderground v.1.15,2013-03-08 01:25:00,
2013-03-07 19:30:00,28.8,20.2,30.36,East,91,2.0,2.0,70,0.00,,,0.10,Wunderground v.1.15,2013-03-08 01:30:00,
2013-03-07 19:35:00,28.7,20.1,30.36,East,88,0.0,6.0,70,0.00,,,0.10,Wunderground v.1.15,2013-03-08 01:35:00,
2013-03-07 19:41:00,28.7,20.1,30.36,East,89,0.0,2.0,70,0.00,,,0.10,Wunderground v.1.15,2013-03-08 01:41:00,
2013-03-07 19:46:00,28.6,20.1,30.37,East,91,0.0,5.0,70,0.00,,,0.10,Wunderground v.1.15,2013-03-08 01:46:00,
2013-03-07 19:51:00,28.5,20.3,30.37,East,91,4.0,5.0,71,0.00,,,0.10,Wunderground v.1.15,2013-03-08 01:51:00,
2013-03-07 19:56:00,28.4,20.2,30.37,East,91,0.0,5.0,71,0.00,,,0.10,Wunderground v.1.15,2013-03-08 01:56:00,
2013-03-07 20:01:00,28.3,20.1,30.36,NE,40,0.0,3.0,71,0.00,,,0.10,Wunderground v.1.15,2013-03-08 02:01:00,
2013-03-07 20:06:00,28.1,19.9,30.36,ENE,71,1.0,4.0,71,0.00,,,0.10,Wunderground v.1.15,2013-03-08 02:06:00,
2013-03-07 20:11:00,27.9,19.7,30.36,East,80,1.0,3.0,71,0.00,,,0.10,Wunderground v.1.15,2013-03-08 02:11:00,
2013-03-07 20:16:00,27.8,19.6,30.36,East,97,5.0,7.0,71,0.00,,,0.10,Wunderground v.1.15,2013-03-08 02:16:00,
2013-03-07 20:22:00,27.7,19.5,30.36,East,84,2.0,6.0,71,0.00,,,0.10,Wunderground v.1.15,2013-03-08 02:22:00,
2013-03-07 20:27:00,27.6,19.4,30.36,ESE,104,4.0,7.0,71,0.00,,,0.10,Wunderground v.1.15,2013-03-08 02:27:00,
2013-03-07 20:32:00,27.5,19.7,30.35,ESE,119,9.0,9.0,72,0.00,,,0.10,Wunderground v.1.15,2013-03-08 02:32:00,
2013-03-07 20:37:00,27.5,19.7,30.35,East,98,4.0,9.0,72,0.00,,,0.10,Wunderground v.1.15,2013-03-08 02:37:00,
2013-03-07 20:43:00,27.5,19.7,30.35,East,90,4.0,6.0,72,0.00,,,0.10,Wunderground v.1.15,2013-03-08 02:43:00,
2013-03-07 20:48:00,27.4,19.6,30.35,ESE,121,4.0,8.0,72,0.00,,,0.10,Wunderground v.1.15,2013-03-08 02:48:00,
2013-03-07 20:53:00,27.4,19.6,30.36,ESE,109,0.0,5.0,72,0.00,,,0.10,Wunderground v.1.15,2013-03-08 02:53:00,
2013-03-07 20:58:00,27.2,19.4,30.35,SE,125,4.0,7.0,72,0.00,,,0.10,Wunderground v.1.15,2013-03-08 02:58:00,
2013-03-07 21:03:00,27.0,19.5,30.36,ESE,113,4.0,6.0,73,0.00,,,0.10,Wunderground v.1.15,2013-03-08 03:03:00,
2013-03-07 21:08:00,26.9,19.4,30.36,ESE,115,0.0,6.0,73,0.00,,,0.10,Wunderground v.1.15,2013-03-08 03:08:00,
2013-03-07 21:14:00,26.7,19.2,30.36,ESE,117,0.0,6.0,73,0.00,,,0.10,Wunderground v.1.15,2013-03-08 03:14:00,
2013-03-07 21:19:00,26.6,19.1,30.36,East,91,0.0,6.0,73,0.00,,,0.10,Wunderground v.1.15,2013-03-08 03:19:00,
2013-03-07 21:24:00,26.4,19.2,30.36,East,96,4.0,5.0,74,0.00,,,0.10,Wunderground v.1.15,2013-03-08 03:24:00,
2013-03-07 21:29:00,26.3,19.1,30.36,East,101,0.0,5.0,74,0.00,,,0.10,Wunderground v.1.15,2013-03-08 03:29:00,
2013-03-07 21:34:00,26.2,19.0,30.36,ESE,102,2.0,4.0,74,0.00,,,0.10,Wunderground v.1.15,2013-03-08 03:34:00,
2013-03-07 21:39:00,26.0,18.8,30.36,ESE,102,2.0,4.0,74,0.00,,,0.10,Wunderground v.1.15,2013-03-08 03:39:00,
2013-03-07 21:44:00,25.8,19.0,30.37,ESE,102,0.0,5.0,75,0.00,,,0.10,Wunderground v.1.15,2013-03-08 03:44:00,
2013-03-07 21:49:00,25.7,18.9,30.37,ESE,102,0.0,5.0,75,0.00,,,0.10,Wunderground v.1.15,2013-03-08 03:49:00,
2013-03-07 21:54:00,25.5,18.7,30.37,ESE,102,0.0,0.0,75,0.00,,,0.10,Wunderground v.1.15,2013-03-08 03:54:00,
2013-03-07 22:00:00,25.2,18.4,30.37,ESE,102,0.0,4.0,75,0.00,,,0.10,Wunderground v.1.15,2013-03-08 04:00:00,
2013-03-07 22:05:00,24.9,18.1,30.37,ESE,102,0.0,0.0,75,0.00,,,0.10,Wunderground v.1.15,2013-03-08 04:05:00,
2013-03-07 22:10:00,24.7,18.2,30.37,ESE,102,0.0,0.0,76,0.00,,,0.10,Wunderground v.1.15,2013-03-08 04:10:00,
2013-03-07 22:15:00,24.4,17.9,30.37,ESE,102,0.0,0.0,76,0.00,,,0.10,Wunderground v.1.15,2013-03-08 04:15:00,
2013-03-07 22:20:00,24.2,18.0,30.38,ESE,102,0.0,0.0,77,0.00,,,0.10,Wunderground v.1.15,2013-03-08 04:20:00,
2013-03-07 22:25:00,24.0,18.1,30.38,ESE,102,0.0,0.0,78,0.00,,,0.10,Wunderground v.1.15,2013-03-08 04:25:00,
2013-03-07 22:30:00,23.8,17.9,30.38,ESE,102,0.0,0.0,78,0.00,,,0.10,Wunderground v.1.15,2013-03-08 04:30:00,
2013-03-07 22:35:00,23.6,17.7,30.38,ESE,102,0.0,0.0,78,0.00,,,0.10,Wunderground v.1.15,2013-03-08 04:35:00,
2013-03-07 22:41:00,23.3,17.5,30.38,ESE,102,0.0,0.0,78,0.00,,,0.10,Wunderground v.1.15,2013-03-08 04:41:00,
2013-03-07 22:46:00,23.0,17.2,30.38,ESE,102,0.0,0.0,78,0.00,,,0.10,Wunderground v.1.15,2013-03-08 04:46:00,
2013-03-07 22:51:00,22.6,17.1,30.38,ESE,102,0.0,0.0,79,0.00,,,0.10,Wunderground v.1.15,2013-03-08 04:51:00,
2013-03-07 22:56:00,22.3,16.8,30.38,ESE,102,0.0,0.0,79,0.00,,,0.10,Wunderground v.1.15,2013-03-08 04:56:00,
2013-03-07 23:00:00,22.0,16.5,30.38,ESE,102,0.0,0.0,79,0.00,,,0.10,Wunderground v.1.15,2013-03-08 05:00:00,
2013-03-07 23:02:00,21.9,16.7,30.38,ESE,102,0.0,0.0,80,0.00,,,0.10,Wunderground v.1.15,2013-03-08 05:02:00,
2013-03-07 23:07:00,21.7,16.8,30.38,ESE,102,0.0,0.0,81,0.00,,,0.10,Wunderground v.1.15,2013-03-08 05:07:00,
2013-03-07 23:12:00,21.3,16.4,30.38,ESE,102,0.0,0.0,81,0.00,,,0.10,Wunderground v.1.15,2013-03-08 05:12:00,
2013-03-07 23:17:00,21.1,16.5,30.38,ESE,102,0.0,0.0,82,0.00,,,0.10,Wunderground v.1.15,2013-03-08 05:17:00,
2013-03-07 23:22:00,21.1,16.7,30.38,ESE,102,0.0,0.0,83,0.00,,,0.10,Wunderground v.1.15,2013-03-08 05:22:00,
2013-03-07 23:27:00,21.1,16.7,30.38,ESE,102,0.0,0.0,83,0.00,,,0.10,Wunderground v.1.15,2013-03-08 05:27:00,
2013-03-07 23:32:00,20.9,16.5,30.38,ESE,103,0.0,2.0,83,0.00,,,0.10,Wunderground v.1.15,2013-03-08 05:32:00,
2013-03-07 23:37:00,20.8,16.5,30.38,ESE,102,0.0,2.0,83,0.00,,,0.10,Wunderground v.1.15,2013-03-08 05:37:00,
2013-03-07 23:43:00,20.9,16.8,30.38,ESE,115,0.0,5.0,84,0.00,,,0.10,Wunderground v.1.15,2013-03-08 05:43:00,
2013-03-07 23:48:00,21.1,17.0,30.38,ESE,115,0.0,5.0,84,0.00,,,0.10,Wunderground v.1.15,2013-03-08 05:48:00,
2013-03-07 23:53:00,21.1,16.7,30.38,ESE,115,0.0,0.0,83,0.00,,,0.10,Wunderground v.1.15,2013-03-08 05:53:00,
2013-03-07 23:58:00,21.1,17.0,30.38,ESE,115,0.0,0.0,84,0.00,,,0.10,Wunderground v.1.15,2013-03-08 05:58:00,